sensor_id;sensor_type;location;lat;lon;timestamp;P1;durP1;ratioP1;P2;durP2;ratioP2
7338;SDS011;33747;49.524;8.390;2022-08-25T00:00:35;5.72;;;3.13;;
7338;SDS011;33747;49.524;8.390;2022-08-25T00:03:00;3.92;;;2.45;;
7338;SDS011;33747;49.524;8.390;2022-08-25T00:05:26;8.02;;;2.75;;
7338;SDS011;33747;49.524;8.390;2022-08-25T00:07:52;9.60;;;2.10;;
7338;SDS011;33747;49.524;8.390;2022-08-25T00:10:17;5.70;;;2.47;;
7338;SDS011;33747;49.524;8.390;2022-08-25T00:12:44;13.13;;;2.47;;
7338;SDS011;33747;49.524;8.390;2022-08-25T00:15:09;3.20;;;2.15;;
7338;SDS011;33747;49.524;8.390;2022-08-25T00:17:35;4.07;;;2.22;;
7338;SDS011;33747;49.524;8.390;2022-08-25T00:20:00;6.57;;;2.50;;
7338;SDS011;33747;49.524;8.390;2022-08-25T00:22:26;5.88;;;2.67;;
7338;SDS011;33747;49.524;8.390;2022-08-25T00:24:51;5.32;;;2.25;;
7338;SDS011;33747;49.524;8.390;2022-08-25T00:27:16;7.20;;;2.40;;
7338;SDS011;33747;49.524;8.390;2022-08-25T00:29:42;5.35;;;2.28;;
7338;SDS011;33747;49.524;8.390;2022-08-25T00:32:07;6.53;;;2.35;;
7338;SDS011;33747;49.524;8.390;2022-08-25T00:34:35;12.02;;;2.30;;
7338;SDS011;33747;49.524;8.390;2022-08-25T00:37:02;5.25;;;2.20;;
7338;SDS011;33747;49.524;8.390;2022-08-25T00:39:31;10.50;;;2.72;;
7338;SDS011;33747;49.524;8.390;2022-08-25T00:41:56;7.05;;;2.58;;
7338;SDS011;33747;49.524;8.390;2022-08-25T00:44:23;4.68;;;2.35;;
7338;SDS011;33747;49.524;8.390;2022-08-25T00:46:51;4.10;;;2.70;;
7338;SDS011;33747;49.524;8.390;2022-08-25T00:52:15;3.85;;;2.03;;
7338;SDS011;33747;49.524;8.390;2022-08-25T00:57:29;5.60;;;2.90;;
7338;SDS011;33747;49.524;8.390;2022-08-25T00:59:58;5.82;;;2.70;;
7338;SDS011;33747;49.524;8.390;2022-08-25T01:02:23;7.78;;;2.53;;
7338;SDS011;33747;49.524;8.390;2022-08-25T01:04:49;5.70;;;3.67;;
7338;SDS011;33747;49.524;8.390;2022-08-25T01:07:15;6.25;;;2.72;;
7338;SDS011;33747;49.524;8.390;2022-08-25T01:09:42;6.13;;;2.47;;
7338;SDS011;33747;49.524;8.390;2022-08-25T01:12:08;3.67;;;2.60;;
7338;SDS011;33747;49.524;8.390;2022-08-25T01:14:34;6.85;;;3.00;;
7338;SDS011;33747;49.524;8.390;2022-08-25T01:17:00;6.15;;;2.58;;
7338;SDS011;33747;49.524;8.390;2022-08-25T01:19:26;5.15;;;2.70;;
7338;SDS011;33747;49.524;8.390;2022-08-25T01:21:53;3.17;;;2.50;;
7338;SDS011;33747;49.524;8.390;2022-08-25T01:24:25;4.75;;;2.03;;
7338;SDS011;33747;49.524;8.390;2022-08-25T01:26:55;2.78;;;2.30;;
7338;SDS011;33747;49.524;8.390;2022-08-25T01:29:21;5.40;;;2.80;;
7338;SDS011;33747;49.524;8.390;2022-08-25T01:31:47;3.40;;;2.58;;
7338;SDS011;33747;49.524;8.390;2022-08-25T01:34:13;7.00;;;2.83;;
7338;SDS011;33747;49.524;8.390;2022-08-25T01:36:40;5.95;;;2.50;;
7338;SDS011;33747;49.524;8.390;2022-08-25T01:39:07;3.40;;;1.95;;
7338;SDS011;33747;49.524;8.390;2022-08-25T01:43:58;2.83;;;2.50;;
7338;SDS011;33747;49.524;8.390;2022-08-25T01:46:23;9.27;;;3.05;;
7338;SDS011;33747;49.524;8.390;2022-08-25T01:48:49;6.30;;;2.53;;
7338;SDS011;33747;49.524;8.390;2022-08-25T01:51:15;8.00;;;2.75;;
7338;SDS011;33747;49.524;8.390;2022-08-25T01:53:40;7.18;;;2.95;;
7338;SDS011;33747;49.524;8.390;2022-08-25T01:56:12;7.60;;;3.38;;
7338;SDS011;33747;49.524;8.390;2022-08-25T01:58:40;16.10;;;3.92;;
7338;SDS011;33747;49.524;8.390;2022-08-25T02:01:08;6.18;;;3.45;;
7338;SDS011;33747;49.524;8.390;2022-08-25T02:03:39;10.27;;;2.80;;
7338;SDS011;33747;49.524;8.390;2022-08-25T02:06:06;4.47;;;2.80;;
7338;SDS011;33747;49.524;8.390;2022-08-25T02:08:32;8.23;;;2.78;;
7338;SDS011;33747;49.524;8.390;2022-08-25T02:10:57;4.13;;;2.80;;
7338;SDS011;33747;49.524;8.390;2022-08-25T02:13:23;8.00;;;2.97;;
7338;SDS011;33747;49.524;8.390;2022-08-25T02:15:51;8.40;;;2.60;;
7338;SDS011;33747;49.524;8.390;2022-08-25T02:18:19;13.98;;;3.28;;
7338;SDS011;33747;49.524;8.390;2022-08-25T02:20:44;6.68;;;3.35;;
7338;SDS011;33747;49.524;8.390;2022-08-25T02:23:09;7.38;;;3.08;;
7338;SDS011;33747;49.524;8.390;2022-08-25T02:25:36;11.18;;;3.30;;
7338;SDS011;33747;49.524;8.390;2022-08-25T02:28:03;5.60;;;2.60;;
7338;SDS011;33747;49.524;8.390;2022-08-25T02:30:28;6.00;;;2.53;;
7338;SDS011;33747;49.524;8.390;2022-08-25T02:32:54;8.10;;;2.65;;
7338;SDS011;33747;49.524;8.390;2022-08-25T02:35:19;7.30;;;2.90;;
7338;SDS011;33747;49.524;8.390;2022-08-25T02:37:44;6.13;;;2.20;;
7338;SDS011;33747;49.524;8.390;2022-08-25T02:40:10;13.20;;;2.80;;
7338;SDS011;33747;49.524;8.390;2022-08-25T02:42:35;7.22;;;3.05;;
7338;SDS011;33747;49.524;8.390;2022-08-25T02:45:01;9.70;;;2.63;;
7338;SDS011;33747;49.524;8.390;2022-08-25T02:47:27;6.10;;;2.50;;
7338;SDS011;33747;49.524;8.390;2022-08-25T02:49:53;6.85;;;2.40;;
7338;SDS011;33747;49.524;8.390;2022-08-25T02:52:19;6.07;;;2.42;;
7338;SDS011;33747;49.524;8.390;2022-08-25T02:54:44;4.90;;;2.00;;
7338;SDS011;33747;49.524;8.390;2022-08-25T02:57:10;4.50;;;2.33;;
7338;SDS011;33747;49.524;8.390;2022-08-25T02:59:39;7.38;;;2.88;;
7338;SDS011;33747;49.524;8.390;2022-08-25T03:02:05;3.92;;;2.35;;
7338;SDS011;33747;49.524;8.390;2022-08-25T03:04:30;3.33;;;2.42;;
7338;SDS011;33747;49.524;8.390;2022-08-25T03:06:56;7.32;;;3.13;;
7338;SDS011;33747;49.524;8.390;2022-08-25T03:09:22;5.45;;;2.40;;
7338;SDS011;33747;49.524;8.390;2022-08-25T03:11:47;4.72;;;2.20;;
7338;SDS011;33747;49.524;8.390;2022-08-25T03:14:13;3.63;;;2.35;;
7338;SDS011;33747;49.524;8.390;2022-08-25T03:16:38;4.32;;;2.42;;
7338;SDS011;33747;49.524;8.390;2022-08-25T03:19:06;3.83;;;2.42;;
7338;SDS011;33747;49.524;8.390;2022-08-25T03:21:31;4.35;;;2.33;;
7338;SDS011;33747;49.524;8.390;2022-08-25T03:23:57;7.90;;;2.55;;
7338;SDS011;33747;49.524;8.390;2022-08-25T03:26:23;4.90;;;2.67;;
7338;SDS011;33747;49.524;8.390;2022-08-25T03:29:07;8.60;;;2.80;;
7338;SDS011;33747;49.524;8.390;2022-08-25T03:31:33;2.70;;;2.33;;
7338;SDS011;33747;49.524;8.390;2022-08-25T03:33:59;7.57;;;2.70;;
7338;SDS011;33747;49.524;8.390;2022-08-25T03:36:25;5.22;;;2.45;;
7338;SDS011;33747;49.524;8.390;2022-08-25T03:38:51;5.43;;;2.25;;
7338;SDS011;33747;49.524;8.390;2022-08-25T03:41:19;7.45;;;3.13;;
7338;SDS011;33747;49.524;8.390;2022-08-25T03:43:46;3.25;;;2.40;;
7338;SDS011;33747;49.524;8.390;2022-08-25T03:46:16;6.85;;;2.40;;
7338;SDS011;33747;49.524;8.390;2022-08-25T03:48:43;6.63;;;2.10;;
7338;SDS011;33747;49.524;8.390;2022-08-25T03:51:09;3.38;;;2.50;;
7338;SDS011;33747;49.524;8.390;2022-08-25T03:53:34;4.45;;;2.22;;
7338;SDS011;33747;49.524;8.390;2022-08-25T03:55:59;8.50;;;2.80;;
7338;SDS011;33747;49.524;8.390;2022-08-25T03:58:25;4.68;;;2.83;;
7338;SDS011;33747;49.524;8.390;2022-08-25T04:00:50;6.38;;;2.88;;
7338;SDS011;33747;49.524;8.390;2022-08-25T04:03:16;5.88;;;2.70;;
7338;SDS011;33747;49.524;8.390;2022-08-25T04:05:42;8.43;;;2.70;;
7338;SDS011;33747;49.524;8.390;2022-08-25T04:08:07;12.77;;;3.20;;
7338;SDS011;33747;49.524;8.390;2022-08-25T04:10:33;8.20;;;3.10;;
7338;SDS011;33747;49.524;8.390;2022-08-25T04:12:59;8.73;;;2.75;;
7338;SDS011;33747;49.524;8.390;2022-08-25T04:15:25;6.45;;;2.90;;
7338;SDS011;33747;49.524;8.390;2022-08-25T04:17:50;5.40;;;3.22;;
7338;SDS011;33747;49.524;8.390;2022-08-25T04:20:15;11.35;;;2.65;;
7338;SDS011;33747;49.524;8.390;2022-08-25T04:22:41;6.18;;;2.78;;
7338;SDS011;33747;49.524;8.390;2022-08-25T04:25:06;12.35;;;3.05;;
7338;SDS011;33747;49.524;8.390;2022-08-25T04:27:32;6.00;;;3.13;;
7338;SDS011;33747;49.524;8.390;2022-08-25T04:29:57;7.13;;;3.30;;
7338;SDS011;33747;49.524;8.390;2022-08-25T04:32:23;6.68;;;3.38;;
7338;SDS011;33747;49.524;8.390;2022-08-25T04:34:48;11.40;;;2.97;;
7338;SDS011;33747;49.524;8.390;2022-08-25T04:37:14;4.10;;;2.80;;
7338;SDS011;33747;49.524;8.390;2022-08-25T04:39:39;5.40;;;2.47;;
7338;SDS011;33747;49.524;8.390;2022-08-25T04:42:05;4.22;;;2.90;;
7338;SDS011;33747;49.524;8.390;2022-08-25T04:44:30;6.00;;;3.10;;
7338;SDS011;33747;49.524;8.390;2022-08-25T04:46:55;5.13;;;3.28;;
7338;SDS011;33747;49.524;8.390;2022-08-25T04:49:21;4.18;;;2.63;;
7338;SDS011;33747;49.524;8.390;2022-08-25T04:51:47;9.30;;;2.92;;
7338;SDS011;33747;49.524;8.390;2022-08-25T04:54:13;9.48;;;2.58;;
7338;SDS011;33747;49.524;8.390;2022-08-25T04:56:41;7.47;;;2.92;;
7338;SDS011;33747;49.524;8.390;2022-08-25T04:59:07;10.68;;;3.05;;
7338;SDS011;33747;49.524;8.390;2022-08-25T05:01:34;8.70;;;3.20;;
7338;SDS011;33747;49.524;8.390;2022-08-25T05:04:01;5.75;;;2.70;;
7338;SDS011;33747;49.524;8.390;2022-08-25T05:06:28;4.75;;;2.92;;
7338;SDS011;33747;49.524;8.390;2022-08-25T05:08:54;3.75;;;2.70;;
7338;SDS011;33747;49.524;8.390;2022-08-25T05:11:21;9.15;;;3.13;;
7338;SDS011;33747;49.524;8.390;2022-08-25T05:13:48;6.85;;;2.85;;
7338;SDS011;33747;49.524;8.390;2022-08-25T05:16:14;4.18;;;2.60;;
7338;SDS011;33747;49.524;8.390;2022-08-25T05:18:40;12.80;;;2.90;;
7338;SDS011;33747;49.524;8.390;2022-08-25T05:21:07;12.75;;;2.83;;
7338;SDS011;33747;49.524;8.390;2022-08-25T05:23:35;8.73;;;3.05;;
7338;SDS011;33747;49.524;8.390;2022-08-25T05:26:03;10.05;;;3.40;;
7338;SDS011;33747;49.524;8.390;2022-08-25T05:28:30;4.43;;;2.80;;
7338;SDS011;33747;49.524;8.390;2022-08-25T05:30:59;11.45;;;3.38;;
7338;SDS011;33747;49.524;8.390;2022-08-25T05:33:25;3.28;;;2.88;;
7338;SDS011;33747;49.524;8.390;2022-08-25T05:35:51;7.28;;;3.08;;
7338;SDS011;33747;49.524;8.390;2022-08-25T05:38:16;11.88;;;2.95;;
7338;SDS011;33747;49.524;8.390;2022-08-25T05:40:42;12.85;;;3.33;;
7338;SDS011;33747;49.524;8.390;2022-08-25T05:43:08;8.75;;;3.15;;
7338;SDS011;33747;49.524;8.390;2022-08-25T05:45:34;5.85;;;3.85;;
7338;SDS011;33747;49.524;8.390;2022-08-25T05:47:59;9.90;;;3.00;;
7338;SDS011;33747;49.524;8.390;2022-08-25T05:50:25;7.60;;;3.05;;
7338;SDS011;33747;49.524;8.390;2022-08-25T05:52:51;11.85;;;3.15;;
7338;SDS011;33747;49.524;8.390;2022-08-25T05:55:17;12.23;;;3.08;;
7338;SDS011;33747;49.524;8.390;2022-08-25T05:57:42;6.30;;;3.00;;
7338;SDS011;33747;49.524;8.390;2022-08-25T06:00:08;5.35;;;3.22;;
7338;SDS011;33747;49.524;8.390;2022-08-25T06:02:34;14.93;;;3.20;;
7338;SDS011;33747;49.524;8.390;2022-08-25T06:05:05;7.18;;;3.22;;
7338;SDS011;33747;49.524;8.390;2022-08-25T06:07:34;15.13;;;4.40;;
7338;SDS011;33747;49.524;8.390;2022-08-25T06:10:00;10.45;;;3.30;;
7338;SDS011;33747;49.524;8.390;2022-08-25T06:12:31;11.15;;;3.70;;
7338;SDS011;33747;49.524;8.390;2022-08-25T06:14:56;12.25;;;3.33;;
7338;SDS011;33747;49.524;8.390;2022-08-25T06:17:22;7.72;;;3.53;;
7338;SDS011;33747;49.524;8.390;2022-08-25T06:19:47;8.48;;;2.70;;
7338;SDS011;33747;49.524;8.390;2022-08-25T06:22:13;13.18;;;3.28;;
7338;SDS011;33747;49.524;8.390;2022-08-25T06:24:38;19.60;;;3.30;;
7338;SDS011;33747;49.524;8.390;2022-08-25T06:27:03;7.03;;;2.75;;
7338;SDS011;33747;49.524;8.390;2022-08-25T06:29:29;18.90;;;3.97;;
7338;SDS011;33747;49.524;8.390;2022-08-25T06:31:54;4.38;;;3.13;;
7338;SDS011;33747;49.524;8.390;2022-08-25T06:34:19;15.30;;;3.60;;
7338;SDS011;33747;49.524;8.390;2022-08-25T06:36:45;10.55;;;2.95;;
7338;SDS011;33747;49.524;8.390;2022-08-25T06:39:10;13.13;;;4.07;;
7338;SDS011;33747;49.524;8.390;2022-08-25T06:41:36;11.30;;;3.65;;
7338;SDS011;33747;49.524;8.390;2022-08-25T06:44:01;14.90;;;3.83;;
7338;SDS011;33747;49.524;8.390;2022-08-25T06:46:27;18.98;;;4.18;;
7338;SDS011;33747;49.524;8.390;2022-08-25T06:48:55;7.22;;;2.88;;
7338;SDS011;33747;49.524;8.390;2022-08-25T06:51:22;15.63;;;3.63;;
7338;SDS011;33747;49.524;8.390;2022-08-25T06:53:48;6.57;;;3.80;;
7338;SDS011;33747;49.524;8.390;2022-08-25T06:56:16;13.30;;;3.75;;
7338;SDS011;33747;49.524;8.390;2022-08-25T06:58:42;11.07;;;4.03;;
7338;SDS011;33747;49.524;8.390;2022-08-25T07:01:09;14.93;;;3.35;;
7338;SDS011;33747;49.524;8.390;2022-08-25T07:03:47;5.72;;;4.05;;
7338;SDS011;33747;49.524;8.390;2022-08-25T07:06:14;14.48;;;3.78;;
7338;SDS011;33747;49.524;8.390;2022-08-25T07:08:40;13.32;;;4.30;;
7338;SDS011;33747;49.524;8.390;2022-08-25T07:11:06;8.80;;;4.13;;
7338;SDS011;33747;49.524;8.390;2022-08-25T07:13:32;6.78;;;4.35;;
7338;SDS011;33747;49.524;8.390;2022-08-25T07:15:59;6.22;;;4.10;;
7338;SDS011;33747;49.524;8.390;2022-08-25T07:18:24;5.18;;;4.28;;
7338;SDS011;33747;49.524;8.390;2022-08-25T07:20:50;11.10;;;5.32;;
7338;SDS011;33747;49.524;8.390;2022-08-25T07:23:17;8.45;;;6.50;;
7338;SDS011;33747;49.524;8.390;2022-08-25T07:25:43;7.47;;;6.78;;
7338;SDS011;33747;49.524;8.390;2022-08-25T07:28:08;11.07;;;6.60;;
7338;SDS011;33747;49.524;8.390;2022-08-25T07:30:34;7.72;;;6.28;;
7338;SDS011;33747;49.524;8.390;2022-08-25T07:32:59;11.88;;;6.25;;
7338;SDS011;33747;49.524;8.390;2022-08-25T07:35:24;14.27;;;7.05;;
7338;SDS011;33747;49.524;8.390;2022-08-25T07:37:52;10.52;;;5.78;;
7338;SDS011;33747;49.524;8.390;2022-08-25T07:40:23;7.60;;;5.30;;
7338;SDS011;33747;49.524;8.390;2022-08-25T07:42:51;10.35;;;6.30;;
7338;SDS011;33747;49.524;8.390;2022-08-25T07:45:17;24.77;;;7.85;;
7338;SDS011;33747;49.524;8.390;2022-08-25T07:47:43;15.65;;;6.88;;
7338;SDS011;33747;49.524;8.390;2022-08-25T07:50:09;8.98;;;5.95;;
7338;SDS011;33747;49.524;8.390;2022-08-25T07:52:37;11.90;;;5.85;;
7338;SDS011;33747;49.524;8.390;2022-08-25T07:55:05;8.57;;;5.15;;
7338;SDS011;33747;49.524;8.390;2022-08-25T07:57:32;7.10;;;4.97;;
7338;SDS011;33747;49.524;8.390;2022-08-25T07:59:57;14.45;;;5.63;;
7338;SDS011;33747;49.524;8.390;2022-08-25T08:02:23;12.25;;;5.50;;
7338;SDS011;33747;49.524;8.390;2022-08-25T08:04:50;7.70;;;4.97;;
7338;SDS011;33747;49.524;8.390;2022-08-25T08:07:17;9.07;;;4.68;;
7338;SDS011;33747;49.524;8.390;2022-08-25T08:09:43;11.10;;;4.50;;
7338;SDS011;33747;49.524;8.390;2022-08-25T08:12:09;10.60;;;5.18;;
7338;SDS011;33747;49.524;8.390;2022-08-25T08:14:34;10.50;;;4.82;;
7338;SDS011;33747;49.524;8.390;2022-08-25T08:17:03;8.80;;;4.82;;
7338;SDS011;33747;49.524;8.390;2022-08-25T08:19:29;7.75;;;4.55;;
7338;SDS011;33747;49.524;8.390;2022-08-25T08:21:55;4.97;;;3.50;;
7338;SDS011;33747;49.524;8.390;2022-08-25T08:24:20;5.15;;;3.55;;
7338;SDS011;33747;49.524;8.390;2022-08-25T08:26:46;6.47;;;3.95;;
7338;SDS011;33747;49.524;8.390;2022-08-25T08:29:11;5.22;;;3.80;;
7338;SDS011;33747;49.524;8.390;2022-08-25T08:31:37;6.38;;;3.78;;
7338;SDS011;33747;49.524;8.390;2022-08-25T08:34:02;9.35;;;3.90;;
7338;SDS011;33747;49.524;8.390;2022-08-25T08:36:28;5.38;;;4.30;;
7338;SDS011;33747;49.524;8.390;2022-08-25T08:38:53;6.45;;;3.90;;
7338;SDS011;33747;49.524;8.390;2022-08-25T08:44:41;12.38;;;4.50;;
7338;SDS011;33747;49.524;8.390;2022-08-25T08:52:43;5.22;;;3.85;;
7338;SDS011;33747;49.524;8.390;2022-08-25T08:55:22;6.00;;;4.60;;
7338;SDS011;33747;49.524;8.390;2022-08-25T08:57:57;4.55;;;3.47;;
7338;SDS011;33747;49.524;8.390;2022-08-25T09:00:24;5.90;;;4.22;;
7338;SDS011;33747;49.524;8.390;2022-08-25T09:02:52;6.60;;;4.80;;
7338;SDS011;33747;49.524;8.390;2022-08-25T09:05:21;8.75;;;4.50;;
7338;SDS011;33747;49.524;8.390;2022-08-25T09:07:52;9.02;;;3.75;;
7338;SDS011;33747;49.524;8.390;2022-08-25T09:10:19;5.38;;;4.38;;
7338;SDS011;33747;49.524;8.390;2022-08-25T09:12:47;6.85;;;4.55;;
7338;SDS011;33747;49.524;8.390;2022-08-25T09:18:39;4.13;;;3.78;;
7338;SDS011;33747;49.524;8.390;2022-08-25T09:21:35;5.50;;;4.22;;
7338;SDS011;33747;49.524;8.390;2022-08-25T09:24:22;4.40;;;4.00;;
7338;SDS011;33747;49.524;8.390;2022-08-25T09:32:37;12.75;;;3.63;;
7338;SDS011;33747;49.524;8.390;2022-08-25T09:35:05;7.10;;;3.40;;
7338;SDS011;33747;49.524;8.390;2022-08-25T09:37:31;6.80;;;3.88;;
7338;SDS011;33747;49.524;8.390;2022-08-25T09:39:57;8.13;;;3.80;;
7338;SDS011;33747;49.524;8.390;2022-08-25T09:42:22;4.07;;;3.63;;
7338;SDS011;33747;49.524;8.390;2022-08-25T09:45:12;5.78;;;3.83;;
7338;SDS011;33747;49.524;8.390;2022-08-25T09:47:43;6.63;;;3.78;;
7338;SDS011;33747;49.524;8.390;2022-08-25T09:50:14;4.03;;;3.70;;
7338;SDS011;33747;49.524;8.390;2022-08-25T09:52:41;6.35;;;3.80;;
7338;SDS011;33747;49.524;8.390;2022-08-25T09:58:38;9.65;;;3.60;;
7338;SDS011;33747;49.524;8.390;2022-08-25T10:00:59;4.97;;;3.40;;
7338;SDS011;33747;49.524;8.390;2022-08-25T10:03:25;6.68;;;3.67;;
7338;SDS011;33747;49.524;8.390;2022-08-25T10:08:54;5.82;;;3.42;;
7338;SDS011;33747;49.524;8.390;2022-08-25T10:11:14;8.07;;;3.38;;
7338;SDS011;33747;49.524;8.390;2022-08-25T10:14:02;8.45;;;3.78;;
7338;SDS011;33747;49.524;8.390;2022-08-25T10:16:30;6.15;;;3.58;;
7338;SDS011;33747;49.524;8.390;2022-08-25T10:19:10;3.70;;;3.35;;
7338;SDS011;33747;49.524;8.390;2022-08-25T10:21:40;4.05;;;3.50;;
7338;SDS011;33747;49.524;8.390;2022-08-25T10:24:10;4.18;;;3.60;;
7338;SDS011;33747;49.524;8.390;2022-08-25T10:32:18;4.13;;;3.15;;
7338;SDS011;33747;49.524;8.390;2022-08-25T10:34:52;3.28;;;2.90;;
7338;SDS011;33747;49.524;8.390;2022-08-25T10:40:14;3.33;;;3.03;;
7338;SDS011;33747;49.524;8.390;2022-08-25T10:43:04;4.35;;;3.15;;
7338;SDS011;33747;49.524;8.390;2022-08-25T10:45:45;3.03;;;2.75;;
7338;SDS011;33747;49.524;8.390;2022-08-25T10:53:56;9.98;;;3.10;;
7338;SDS011;33747;49.524;8.390;2022-08-25T10:56:59;5.00;;;2.97;;
7338;SDS011;33747;49.524;8.390;2022-08-25T11:04:56;6.70;;;3.28;;
7338;SDS011;33747;49.524;8.390;2022-08-25T11:07:28;3.38;;;3.08;;
7338;SDS011;33747;49.524;8.390;2022-08-25T11:09:58;2.47;;;2.33;;
7338;SDS011;33747;49.524;8.390;2022-08-25T11:12:30;2.90;;;2.70;;
7338;SDS011;33747;49.524;8.390;2022-08-25T11:14:58;3.65;;;2.80;;
7338;SDS011;33747;49.524;8.390;2022-08-25T11:17:45;2.95;;;2.55;;
7338;SDS011;33747;49.524;8.390;2022-08-25T11:20:15;21.08;;;3.25;;
7338;SDS011;33747;49.524;8.390;2022-08-25T11:23:05;2.78;;;2.50;;
7338;SDS011;33747;49.524;8.390;2022-08-25T11:25:36;3.35;;;3.00;;
7338;SDS011;33747;49.524;8.390;2022-08-25T11:28:10;5.53;;;2.60;;
7338;SDS011;33747;49.524;8.390;2022-08-25T11:30:37;8.10;;;3.03;;
7338;SDS011;33747;49.524;8.390;2022-08-25T11:33:03;3.13;;;2.70;;
7338;SDS011;33747;49.524;8.390;2022-08-25T11:35:34;3.70;;;2.70;;
7338;SDS011;33747;49.524;8.390;2022-08-25T11:43:29;4.97;;;2.95;;
7338;SDS011;33747;49.524;8.390;2022-08-25T11:46:18;3.20;;;2.90;;
7338;SDS011;33747;49.524;8.390;2022-08-25T11:49:10;5.40;;;2.85;;
7338;SDS011;33747;49.524;8.390;2022-08-25T11:51:41;3.92;;;2.67;;
7338;SDS011;33747;49.524;8.390;2022-08-25T11:54:16;2.92;;;2.67;;
7338;SDS011;33747;49.524;8.390;2022-08-25T11:56:56;3.00;;;2.67;;
7338;SDS011;33747;49.524;8.390;2022-08-25T12:05:00;2.60;;;2.40;;
7338;SDS011;33747;49.524;8.390;2022-08-25T12:07:29;4.95;;;3.28;;
7338;SDS011;33747;49.524;8.390;2022-08-25T12:23:31;3.33;;;2.50;;
7338;SDS011;33747;49.524;8.390;2022-08-25T12:26:08;3.60;;;2.95;;
7338;SDS011;33747;49.524;8.390;2022-08-25T12:34:31;3.70;;;2.60;;
7338;SDS011;33747;49.524;8.390;2022-08-25T12:37:13;3.75;;;2.65;;
7338;SDS011;33747;49.524;8.390;2022-08-25T12:39:54;4.45;;;2.75;;
7338;SDS011;33747;49.524;8.390;2022-08-25T12:45:12;4.95;;;2.65;;
7338;SDS011;33747;49.524;8.390;2022-08-25T12:47:51;4.15;;;2.55;;
7338;SDS011;33747;49.524;8.390;2022-08-25T12:53:12;4.40;;;2.78;;
7338;SDS011;33747;49.524;8.390;2022-08-25T12:55:53;2.28;;;2.17;;
7338;SDS011;33747;49.524;8.390;2022-08-25T12:58:24;2.75;;;2.55;;
7338;SDS011;33747;49.524;8.390;2022-08-25T13:01:14;3.25;;;2.80;;
7338;SDS011;33747;49.524;8.390;2022-08-25T13:06:34;4.63;;;3.03;;
7338;SDS011;33747;49.524;8.390;2022-08-25T13:09:26;3.25;;;2.67;;
7338;SDS011;33747;49.524;8.390;2022-08-25T13:12:29;2.60;;;2.45;;
7338;SDS011;33747;49.524;8.390;2022-08-25T13:14:58;3.72;;;2.90;;
7338;SDS011;33747;49.524;8.390;2022-08-25T13:17:32;5.22;;;3.00;;
7338;SDS011;33747;49.524;8.390;2022-08-25T13:22:52;4.30;;;2.80;;
7338;SDS011;33747;49.524;8.390;2022-08-25T13:25:22;2.50;;;2.30;;
7338;SDS011;33747;49.524;8.390;2022-08-25T13:27:49;3.35;;;3.05;;
7338;SDS011;33747;49.524;8.390;2022-08-25T13:30:49;5.50;;;3.30;;
7338;SDS011;33747;49.524;8.390;2022-08-25T13:33:14;5.25;;;3.08;;
7338;SDS011;33747;49.524;8.390;2022-08-25T13:35:46;5.95;;;2.88;;
7338;SDS011;33747;49.524;8.390;2022-08-25T13:38:35;3.28;;;2.97;;
7338;SDS011;33747;49.524;8.390;2022-08-25T13:41:04;3.80;;;2.90;;
7338;SDS011;33747;49.524;8.390;2022-08-25T13:43:30;3.17;;;2.78;;
7338;SDS011;33747;49.524;8.390;2022-08-25T13:45:55;3.15;;;2.72;;
7338;SDS011;33747;49.524;8.390;2022-08-25T13:48:31;3.40;;;3.03;;
7338;SDS011;33747;49.524;8.390;2022-08-25T13:51:09;3.08;;;2.78;;
7338;SDS011;33747;49.524;8.390;2022-08-25T13:56:55;3.10;;;2.83;;
7338;SDS011;33747;49.524;8.390;2022-08-25T13:59:18;5.85;;;2.90;;
7338;SDS011;33747;49.524;8.390;2022-08-25T14:01:49;4.70;;;2.90;;
7338;SDS011;33747;49.524;8.390;2022-08-25T14:04:19;2.78;;;2.58;;
7338;SDS011;33747;49.524;8.390;2022-08-25T14:07:14;3.28;;;2.80;;
7338;SDS011;33747;49.524;8.390;2022-08-25T14:17:30;2.70;;;2.50;;
7338;SDS011;33747;49.524;8.390;2022-08-25T14:19:56;3.90;;;2.80;;
7338;SDS011;33747;49.524;8.390;2022-08-25T14:22:21;4.35;;;3.00;;
7338;SDS011;33747;49.524;8.390;2022-08-25T14:24:47;5.10;;;2.50;;
7338;SDS011;33747;49.524;8.390;2022-08-25T14:27:12;2.78;;;2.15;;
7338;SDS011;33747;49.524;8.390;2022-08-25T14:29:38;2.65;;;2.45;;
7338;SDS011;33747;49.524;8.390;2022-08-25T14:32:03;3.22;;;2.25;;
7338;SDS011;33747;49.524;8.390;2022-08-25T14:34:33;3.10;;;2.58;;
7338;SDS011;33747;49.524;8.390;2022-08-25T14:37:08;7.82;;;2.38;;
7338;SDS011;33747;49.524;8.390;2022-08-25T14:39:44;5.88;;;2.15;;
7338;SDS011;33747;49.524;8.390;2022-08-25T14:42:10;7.68;;;2.42;;
7338;SDS011;33747;49.524;8.390;2022-08-25T14:44:36;2.63;;;2.42;;
7338;SDS011;33747;49.524;8.390;2022-08-25T14:47:02;4.97;;;2.45;;
7338;SDS011;33747;49.524;8.390;2022-08-25T14:49:28;4.22;;;2.67;;
7338;SDS011;33747;49.524;8.390;2022-08-25T14:54:46;4.38;;;2.55;;
7338;SDS011;33747;49.524;8.390;2022-08-25T14:57:11;3.20;;;2.13;;
7338;SDS011;33747;49.524;8.390;2022-08-25T14:59:37;4.00;;;2.63;;
7338;SDS011;33747;49.524;8.390;2022-08-25T15:02:04;2.78;;;2.25;;
7338;SDS011;33747;49.524;8.390;2022-08-25T15:04:32;3.60;;;2.33;;
7338;SDS011;33747;49.524;8.390;2022-08-25T15:06:59;4.07;;;2.47;;
7338;SDS011;33747;49.524;8.390;2022-08-25T15:09:25;8.80;;;2.67;;
7338;SDS011;33747;49.524;8.390;2022-08-25T15:11:52;3.45;;;2.50;;
7338;SDS011;33747;49.524;8.390;2022-08-25T15:14:19;5.18;;;2.05;;
7338;SDS011;33747;49.524;8.390;2022-08-25T15:16:48;3.95;;;2.53;;
7338;SDS011;33747;49.524;8.390;2022-08-25T15:19:15;5.22;;;2.53;;
7338;SDS011;33747;49.524;8.390;2022-08-25T15:21:43;2.40;;;2.05;;
7338;SDS011;33747;49.524;8.390;2022-08-25T15:24:10;2.75;;;2.30;;
7338;SDS011;33747;49.524;8.390;2022-08-25T15:26:40;6.03;;;2.70;;
7338;SDS011;33747;49.524;8.390;2022-08-25T15:31:33;36.83;;;11.85;;
7338;SDS011;33747;49.524;8.390;2022-08-25T15:33:59;7.55;;;3.33;;
7338;SDS011;33747;49.524;8.390;2022-08-25T15:36:24;4.82;;;2.72;;
7338;SDS011;33747;49.524;8.390;2022-08-25T15:38:50;3.33;;;2.30;;
7338;SDS011;33747;49.524;8.390;2022-08-25T15:41:15;6.57;;;2.78;;
7338;SDS011;33747;49.524;8.390;2022-08-25T15:43:40;4.90;;;2.13;;
7338;SDS011;33747;49.524;8.390;2022-08-25T15:46:07;6.25;;;2.80;;
7338;SDS011;33747;49.524;8.390;2022-08-25T15:48:33;3.05;;;2.38;;
7338;SDS011;33747;49.524;8.390;2022-08-25T15:50:59;4.00;;;2.78;;
7338;SDS011;33747;49.524;8.390;2022-08-25T15:53:25;5.18;;;2.17;;
7338;SDS011;33747;49.524;8.390;2022-08-25T15:55:51;4.57;;;2.95;;
7338;SDS011;33747;49.524;8.390;2022-08-25T15:58:16;2.50;;;2.30;;
7338;SDS011;33747;49.524;8.390;2022-08-25T16:00:42;2.70;;;2.22;;
7338;SDS011;33747;49.524;8.390;2022-08-25T16:03:09;5.97;;;2.50;;
7338;SDS011;33747;49.524;8.390;2022-08-25T16:05:35;2.78;;;2.20;;
7338;SDS011;33747;49.524;8.390;2022-08-25T16:08:01;6.05;;;2.63;;
7338;SDS011;33747;49.524;8.390;2022-08-25T16:10:27;3.15;;;2.58;;
7338;SDS011;33747;49.524;8.390;2022-08-25T16:12:52;3.65;;;2.30;;
7338;SDS011;33747;49.524;8.390;2022-08-25T16:15:18;4.82;;;2.65;;
7338;SDS011;33747;49.524;8.390;2022-08-25T16:17:43;2.40;;;2.20;;
7338;SDS011;33747;49.524;8.390;2022-08-25T16:20:09;5.88;;;2.35;;
7338;SDS011;33747;49.524;8.390;2022-08-25T16:22:34;2.47;;;2.20;;
7338;SDS011;33747;49.524;8.390;2022-08-25T16:25:00;4.82;;;2.50;;
7338;SDS011;33747;49.524;8.390;2022-08-25T16:27:26;2.63;;;2.30;;
7338;SDS011;33747;49.524;8.390;2022-08-25T16:29:51;5.30;;;2.30;;
7338;SDS011;33747;49.524;8.390;2022-08-25T16:32:17;2.53;;;2.30;;
7338;SDS011;33747;49.524;8.390;2022-08-25T16:34:43;4.15;;;2.85;;
7338;SDS011;33747;49.524;8.390;2022-08-25T16:37:08;3.70;;;2.50;;
7338;SDS011;33747;49.524;8.390;2022-08-25T16:39:34;2.13;;;1.92;;
7338;SDS011;33747;49.524;8.390;2022-08-25T16:42:00;3.55;;;2.30;;
7338;SDS011;33747;49.524;8.390;2022-08-25T16:44:25;3.10;;;2.45;;
7338;SDS011;33747;49.524;8.390;2022-08-25T16:46:51;5.20;;;2.38;;
7338;SDS011;33747;49.524;8.390;2022-08-25T16:49:18;8.32;;;2.00;;
7338;SDS011;33747;49.524;8.390;2022-08-25T16:51:43;4.53;;;2.10;;
7338;SDS011;33747;49.524;8.390;2022-08-25T16:54:09;2.65;;;2.03;;
7338;SDS011;33747;49.524;8.390;2022-08-25T16:56:54;2.47;;;2.28;;